sensor_id;sensor_type;location;lat;lon;timestamp;P1;durP1;ratioP1;P2;durP2;ratioP2
31081;SDS011;17737;52.586;13.284;2023-04-06T00:00:01;0.70;;;0.70;;
31081;SDS011;17737;52.586;13.284;2023-04-06T00:02:31;0.52;;;0.52;;
31081;SDS011;17737;52.586;13.284;2023-04-06T00:04:59;0.73;;;0.70;;
31081;SDS011;17737;52.586;13.284;2023-04-06T00:07:27;0.70;;;0.70;;
31081;SDS011;17737;52.586;13.284;2023-04-06T00:09:56;0.63;;;0.63;;
31081;SDS011;17737;52.586;13.284;2023-04-06T00:12:24;0.60;;;0.60;;
31081;SDS011;17737;52.586;13.284;2023-04-06T00:14:53;0.68;;;0.68;;
31081;SDS011;17737;52.586;13.284;2023-04-06T00:17:21;0.50;;;0.50;;
31081;SDS011;17737;52.586;13.284;2023-04-06T00:19:50;0.70;;;0.70;;
31081;SDS011;17737;52.586;13.284;2023-04-06T00:22:18;0.77;;;0.77;;
31081;SDS011;17737;52.586;13.284;2023-04-06T00:24:46;0.80;;;0.80;;
31081;SDS011;17737;52.586;13.284;2023-04-06T00:27:14;0.77;;;0.77;;
31081;SDS011;17737;52.586;13.284;2023-04-06T00:29:43;0.70;;;0.70;;
31081;SDS011;17737;52.586;13.284;2023-04-06T00:32:13;0.70;;;0.70;;
31081;SDS011;17737;52.586;13.284;2023-04-06T00:34:41;0.60;;;0.60;;
31081;SDS011;17737;52.586;13.284;2023-04-06T00:37:10;0.88;;;0.70;;
31081;SDS011;17737;52.586;13.284;2023-04-06T00:39:38;1.63;;;0.90;;
31081;SDS011;17737;52.586;13.284;2023-04-06T00:42:07;0.70;;;0.70;;
31081;SDS011;17737;52.586;13.284;2023-04-06T00:44:40;0.70;;;0.70;;
31081;SDS011;17737;52.586;13.284;2023-04-06T00:47:08;0.77;;;0.77;;
31081;SDS011;17737;52.586;13.284;2023-04-06T00:49:38;0.63;;;0.63;;
31081;SDS011;17737;52.586;13.284;2023-04-06T00:52:07;0.60;;;0.60;;
31081;SDS011;17737;52.586;13.284;2023-04-06T00:54:35;0.60;;;0.60;;
31081;SDS011;17737;52.586;13.284;2023-04-06T00:57:03;0.60;;;0.60;;
31081;SDS011;17737;52.586;13.284;2023-04-06T00:59:32;3.23;;;0.90;;
31081;SDS011;17737;52.586;13.284;2023-04-06T01:02:01;0.65;;;0.65;;
31081;SDS011;17737;52.586;13.284;2023-04-06T01:04:29;0.55;;;0.55;;
31081;SDS011;17737;52.586;13.284;2023-04-06T01:06:59;0.70;;;0.70;;
31081;SDS011;17737;52.586;13.284;2023-04-06T01:09:27;0.70;;;0.70;;
31081;SDS011;17737;52.586;13.284;2023-04-06T01:11:56;1.00;;;0.90;;
31081;SDS011;17737;52.586;13.284;2023-04-06T01:14:24;0.95;;;0.70;;
31081;SDS011;17737;52.586;13.284;2023-04-06T01:16:54;0.63;;;0.63;;
31081;SDS011;17737;52.586;13.284;2023-04-06T01:19:27;0.70;;;0.70;;
31081;SDS011;17737;52.586;13.284;2023-04-06T01:21:55;0.70;;;0.70;;
31081;SDS011;17737;52.586;13.284;2023-04-06T01:24:25;0.80;;;0.80;;
31081;SDS011;17737;52.586;13.284;2023-04-06T01:26:53;0.73;;;0.73;;
31081;SDS011;17737;52.586;13.284;2023-04-06T01:29:22;0.63;;;0.63;;
31081;SDS011;17737;52.586;13.284;2023-04-06T01:31:50;0.60;;;0.60;;
31081;SDS011;17737;52.586;13.284;2023-04-06T01:34:19;0.80;;;0.80;;
31081;SDS011;17737;52.586;13.284;2023-04-06T01:36:47;0.63;;;0.60;;
31081;SDS011;17737;52.586;13.284;2023-04-06T01:39:15;0.80;;;0.80;;
31081;SDS011;17737;52.586;13.284;2023-04-06T01:41:44;0.70;;;0.70;;
31081;SDS011;17737;52.586;13.284;2023-04-06T01:44:16;0.70;;;0.70;;
31081;SDS011;17737;52.586;13.284;2023-04-06T01:46:45;0.70;;;0.70;;
31081;SDS011;17737;52.586;13.284;2023-04-06T01:49:13;0.88;;;0.85;;
31081;SDS011;17737;52.586;13.284;2023-04-06T01:51:41;0.68;;;0.68;;
31081;SDS011;17737;52.586;13.284;2023-04-06T01:54:09;0.73;;;0.68;;
31081;SDS011;17737;52.586;13.284;2023-04-06T01:56:37;0.77;;;0.77;;
31081;SDS011;17737;52.586;13.284;2023-04-06T01:59:07;0.60;;;0.60;;
31081;SDS011;17737;52.586;13.284;2023-04-06T02:01:36;0.80;;;0.80;;
31081;SDS011;17737;52.586;13.284;2023-04-06T02:04:04;0.80;;;0.80;;
31081;SDS011;17737;52.586;13.284;2023-04-06T02:06:32;0.70;;;0.70;;
31081;SDS011;17737;52.586;13.284;2023-04-06T02:09:00;0.77;;;0.77;;
31081;SDS011;17737;52.586;13.284;2023-04-06T02:11:28;1.00;;;0.90;;
31081;SDS011;17737;52.586;13.284;2023-04-06T02:13:56;0.70;;;0.70;;
31081;SDS011;17737;52.586;13.284;2023-04-06T02:16:27;0.70;;;0.70;;
31081;SDS011;17737;52.586;13.284;2023-04-06T02:18:55;0.70;;;0.70;;
31081;SDS011;17737;52.586;13.284;2023-04-06T02:21:24;0.52;;;0.52;;
31081;SDS011;17737;52.586;13.284;2023-04-06T02:23:52;0.75;;;0.75;;
31081;SDS011;17737;52.586;13.284;2023-04-06T02:26:20;0.70;;;0.70;;
31081;SDS011;17737;52.586;13.284;2023-04-06T02:28:48;1.00;;;0.85;;
31081;SDS011;17737;52.586;13.284;2023-04-06T02:31:16;0.63;;;0.63;;
31081;SDS011;17737;52.586;13.284;2023-04-06T02:33:46;0.80;;;0.80;;
31081;SDS011;17737;52.586;13.284;2023-04-06T02:36:14;0.95;;;0.95;;
31081;SDS011;17737;52.586;13.284;2023-04-06T02:38:42;1.13;;;0.85;;
31081;SDS011;17737;52.586;13.284;2023-04-06T02:41:10;0.80;;;0.80;;
31081;SDS011;17737;52.586;13.284;2023-04-06T02:43:38;0.60;;;0.60;;
31081;SDS011;17737;52.586;13.284;2023-04-06T02:46:06;0.70;;;0.70;;
31081;SDS011;17737;52.586;13.284;2023-04-06T02:48:34;0.60;;;0.60;;
31081;SDS011;17737;52.586;13.284;2023-04-06T02:51:04;0.82;;;0.82;;
31081;SDS011;17737;52.586;13.284;2023-04-06T02:56:00;0.70;;;0.70;;
31081;SDS011;17737;52.586;13.284;2023-04-06T02:58:28;0.93;;;0.80;;
31081;SDS011;17737;52.586;13.284;2023-04-06T03:00:56;0.73;;;0.73;;
31081;SDS011;17737;52.586;13.284;2023-04-06T03:03:25;0.77;;;0.77;;
31081;SDS011;17737;52.586;13.284;2023-04-06T03:05:53;0.80;;;0.80;;
31081;SDS011;17737;52.586;13.284;2023-04-06T03:08:23;0.90;;;0.90;;
31081;SDS011;17737;52.586;13.284;2023-04-06T03:10:52;0.93;;;0.85;;
31081;SDS011;17737;52.586;13.284;2023-04-06T03:13:20;1.73;;;0.82;;
31081;SDS011;17737;52.586;13.284;2023-04-06T03:15:48;0.77;;;0.77;;
31081;SDS011;17737;52.586;13.284;2023-04-06T03:18:17;0.95;;;0.85;;
31081;SDS011;17737;52.586;13.284;2023-04-06T03:20:49;0.75;;;0.75;;
31081;SDS011;17737;52.586;13.284;2023-04-06T03:23:17;0.70;;;0.70;;
31081;SDS011;17737;52.586;13.284;2023-04-06T03:25:48;0.98;;;0.80;;
31081;SDS011;17737;52.586;13.284;2023-04-06T03:30:44;0.70;;;0.70;;
31081;SDS011;17737;52.586;13.284;2023-04-06T03:33:13;1.23;;;0.97;;
31081;SDS011;17737;52.586;13.284;2023-04-06T03:35:41;0.60;;;0.60;;
31081;SDS011;17737;52.586;13.284;2023-04-06T03:38:09;0.70;;;0.70;;
31081;SDS011;17737;52.586;13.284;2023-04-06T03:40:37;1.00;;;0.90;;
31081;SDS011;17737;52.586;13.284;2023-04-06T03:43:07;1.05;;;0.80;;
31081;SDS011;17737;52.586;13.284;2023-04-06T03:45:35;0.73;;;0.60;;
31081;SDS011;17737;52.586;13.284;2023-04-06T03:48:03;1.33;;;0.93;;
31081;SDS011;17737;52.586;13.284;2023-04-06T03:50:32;0.80;;;0.80;;
31081;SDS011;17737;52.586;13.284;2023-04-06T03:53:00;0.80;;;0.80;;
31081;SDS011;17737;52.586;13.284;2023-04-06T03:55:29;1.00;;;0.80;;
31081;SDS011;17737;52.586;13.284;2023-04-06T03:57:57;0.57;;;0.57;;
31081;SDS011;17737;52.586;13.284;2023-04-06T04:00:26;0.70;;;0.70;;
31081;SDS011;17737;52.586;13.284;2023-04-06T04:02:54;0.80;;;0.80;;
31081;SDS011;17737;52.586;13.284;2023-04-06T04:05:23;0.90;;;0.90;;
31081;SDS011;17737;52.586;13.284;2023-04-06T04:07:51;0.88;;;0.85;;
31081;SDS011;17737;52.586;13.284;2023-04-06T04:10:19;0.98;;;0.88;;
31081;SDS011;17737;52.586;13.284;2023-04-06T04:12:47;0.80;;;0.80;;
31081;SDS011;17737;52.586;13.284;2023-04-06T04:15:16;0.85;;;0.85;;
31081;SDS011;17737;52.586;13.284;2023-04-06T04:17:45;1.08;;;0.93;;
31081;SDS011;17737;52.586;13.284;2023-04-06T04:20:15;0.70;;;0.70;;
31081;SDS011;17737;52.586;13.284;2023-04-06T04:22:43;1.20;;;0.73;;
31081;SDS011;17737;52.586;13.284;2023-04-06T04:25:11;1.13;;;0.90;;
31081;SDS011;17737;52.586;13.284;2023-04-06T04:30:09;0.80;;;0.80;;
31081;SDS011;17737;52.586;13.284;2023-04-06T04:32:37;0.90;;;0.90;;
31081;SDS011;17737;52.586;13.284;2023-04-06T04:35:08;0.88;;;0.75;;
31081;SDS011;17737;52.586;13.284;2023-04-06T04:37:37;1.17;;;1.02;;
31081;SDS011;17737;52.586;13.284;2023-04-06T04:40:06;1.08;;;0.98;;
31081;SDS011;17737;52.586;13.284;2023-04-06T04:42:35;1.30;;;0.90;;
31081;SDS011;17737;52.586;13.284;2023-04-06T04:45:03;1.27;;;0.77;;
31081;SDS011;17737;52.586;13.284;2023-04-06T04:47:32;0.77;;;0.77;;
31081;SDS011;17737;52.586;13.284;2023-04-06T04:50:00;0.95;;;0.85;;
31081;SDS011;17737;52.586;13.284;2023-04-06T04:52:30;1.25;;;0.75;;
31081;SDS011;17737;52.586;13.284;2023-04-06T04:54:58;1.30;;;1.20;;
31081;SDS011;17737;52.586;13.284;2023-04-06T04:57:26;1.10;;;1.00;;
31081;SDS011;17737;52.586;13.284;2023-04-06T04:59:54;0.98;;;0.90;;
31081;SDS011;17737;52.586;13.284;2023-04-06T05:02:23;2.08;;;1.48;;
31081;SDS011;17737;52.586;13.284;2023-04-06T05:04:51;1.35;;;0.98;;
31081;SDS011;17737;52.586;13.284;2023-04-06T05:07:19;0.98;;;0.90;;
31081;SDS011;17737;52.586;13.284;2023-04-06T05:09:49;1.23;;;1.00;;
31081;SDS011;17737;52.586;13.284;2023-04-06T05:12:18;0.70;;;0.70;;
31081;SDS011;17737;52.586;13.284;2023-04-06T05:14:47;0.70;;;0.70;;
31081;SDS011;17737;52.586;13.284;2023-04-06T05:17:15;0.73;;;0.65;;
31081;SDS011;17737;52.586;13.284;2023-04-06T05:19:43;1.73;;;0.95;;
31081;SDS011;17737;52.586;13.284;2023-04-06T05:22:11;1.20;;;1.10;;
31081;SDS011;17737;52.586;13.284;2023-04-06T05:24:42;0.82;;;0.70;;
31081;SDS011;17737;52.586;13.284;2023-04-06T05:27:11;1.17;;;0.70;;
31081;SDS011;17737;52.586;13.284;2023-04-06T05:32:07;1.00;;;0.88;;
31081;SDS011;17737;52.586;13.284;2023-04-06T05:34:36;1.08;;;0.82;;
31081;SDS011;17737;52.586;13.284;2023-04-06T05:37:04;0.87;;;0.87;;
31081;SDS011;17737;52.586;13.284;2023-04-06T05:39:33;1.15;;;0.80;;
31081;SDS011;17737;52.586;13.284;2023-04-06T05:42:02;1.10;;;0.95;;
31081;SDS011;17737;52.586;13.284;2023-04-06T05:44:34;1.20;;;0.95;;
31081;SDS011;17737;52.586;13.284;2023-04-06T05:47:04;0.85;;;0.85;;
31081;SDS011;17737;52.586;13.284;2023-04-06T05:49:32;0.85;;;0.85;;
31081;SDS011;17737;52.586;13.284;2023-04-06T05:52:00;1.00;;;0.82;;
31081;SDS011;17737;52.586;13.284;2023-04-06T05:54:30;0.73;;;0.73;;
31081;SDS011;17737;52.586;13.284;2023-04-06T05:56:58;0.88;;;0.80;;
31081;SDS011;17737;52.586;13.284;2023-04-06T05:59:32;0.88;;;0.85;;
31081;SDS011;17737;52.586;13.284;2023-04-06T06:02:03;0.95;;;0.90;;
31081;SDS011;17737;52.586;13.284;2023-04-06T06:04:32;0.73;;;0.68;;
31081;SDS011;17737;52.586;13.284;2023-04-06T06:07:00;0.95;;;0.85;;
31081;SDS011;17737;52.586;13.284;2023-04-06T06:09:28;0.80;;;0.77;;
31081;SDS011;17737;52.586;13.284;2023-04-06T06:11:56;0.73;;;0.73;;
31081;SDS011;17737;52.586;13.284;2023-04-06T06:14:24;1.30;;;0.63;;
31081;SDS011;17737;52.586;13.284;2023-04-06T06:16:56;0.70;;;0.70;;
31081;SDS011;17737;52.586;13.284;2023-04-06T06:21:52;0.90;;;0.80;;
31081;SDS011;17737;52.586;13.284;2023-04-06T06:24:20;0.95;;;0.77;;
31081;SDS011;17737;52.586;13.284;2023-04-06T06:26:48;0.80;;;0.80;;
31081;SDS011;17737;52.586;13.284;2023-04-06T06:29:16;1.10;;;1.00;;
31081;SDS011;17737;52.586;13.284;2023-04-06T06:31:44;1.23;;;0.98;;
31081;SDS011;17737;52.586;13.284;2023-04-06T06:34:17;0.65;;;0.65;;
31081;SDS011;17737;52.586;13.284;2023-04-06T06:36:45;2.38;;;0.80;;
31081;SDS011;17737;52.586;13.284;2023-04-06T06:39:15;0.60;;;0.60;;
31081;SDS011;17737;52.586;13.284;2023-04-06T06:41:46;0.60;;;0.60;;
31081;SDS011;17737;52.586;13.284;2023-04-06T06:44:14;0.93;;;0.75;;
31081;SDS011;17737;52.586;13.284;2023-04-06T06:46:43;0.63;;;0.63;;
31081;SDS011;17737;52.586;13.284;2023-04-06T06:49:11;0.68;;;0.68;;
31081;SDS011;17737;52.586;13.284;2023-04-06T06:51:44;0.60;;;0.60;;
31081;SDS011;17737;52.586;13.284;2023-04-06T06:54:13;0.60;;;0.60;;
31081;SDS011;17737;52.586;13.284;2023-04-06T06:56:41;0.70;;;0.70;;
31081;SDS011;17737;52.586;13.284;2023-04-06T06:59:12;0.50;;;0.50;;
31081;SDS011;17737;52.586;13.284;2023-04-06T07:04:10;0.73;;;0.73;;
31081;SDS011;17737;52.586;13.284;2023-04-06T07:06:38;0.52;;;0.52;;
31081;SDS011;17737;52.586;13.284;2023-04-06T07:09:08;0.63;;;0.63;;
31081;SDS011;17737;52.586;13.284;2023-04-06T07:11:36;0.88;;;0.75;;
31081;SDS011;17737;52.586;13.284;2023-04-06T07:14:06;0.50;;;0.50;;
31081;SDS011;17737;52.586;13.284;2023-04-06T07:16:40;0.60;;;0.60;;
31081;SDS011;17737;52.586;13.284;2023-04-06T07:19:11;0.40;;;0.40;;
31081;SDS011;17737;52.586;13.284;2023-04-06T07:21:42;0.40;;;0.40;;
31081;SDS011;17737;52.586;13.284;2023-04-06T07:24:12;0.50;;;0.50;;
31081;SDS011;17737;52.586;13.284;2023-04-06T07:26:40;0.40;;;0.40;;
31081;SDS011;17737;52.586;13.284;2023-04-06T07:29:09;0.50;;;0.50;;
31081;SDS011;17737;52.586;13.284;2023-04-06T07:31:38;0.52;;;0.52;;
31081;SDS011;17737;52.586;13.284;2023-04-06T07:34:07;0.60;;;0.60;;
31081;SDS011;17737;52.586;13.284;2023-04-06T07:36:35;0.50;;;0.50;;
31081;SDS011;17737;52.586;13.284;2023-04-06T07:39:03;0.50;;;0.50;;
31081;SDS011;17737;52.586;13.284;2023-04-06T07:41:33;0.47;;;0.47;;
31081;SDS011;17737;52.586;13.284;2023-04-06T07:44:01;0.45;;;0.45;;
31081;SDS011;17737;52.586;13.284;2023-04-06T07:46:30;0.40;;;0.40;;
31081;SDS011;17737;52.586;13.284;2023-04-06T07:48:59;0.52;;;0.52;;
31081;SDS011;17737;52.586;13.284;2023-04-06T07:51:28;0.50;;;0.50;;
31081;SDS011;17737;52.586;13.284;2023-04-06T07:53:57;0.40;;;0.40;;
31081;SDS011;17737;52.586;13.284;2023-04-06T07:56:25;0.50;;;0.50;;
31081;SDS011;17737;52.586;13.284;2023-04-06T07:58:54;0.38;;;0.38;;
31081;SDS011;17737;52.586;13.284;2023-04-06T08:01:24;0.50;;;0.50;;
31081;SDS011;17737;52.586;13.284;2023-04-06T08:03:54;0.40;;;0.40;;
31081;SDS011;17737;52.586;13.284;2023-04-06T08:06:24;0.47;;;0.47;;
31081;SDS011;17737;52.586;13.284;2023-04-06T08:08:52;0.40;;;0.40;;
31081;SDS011;17737;52.586;13.284;2023-04-06T08:11:20;0.35;;;0.35;;
31081;SDS011;17737;52.586;13.284;2023-04-06T08:13:48;0.40;;;0.40;;
31081;SDS011;17737;52.586;13.284;2023-04-06T08:16:18;0.32;;;0.32;;
31081;SDS011;17737;52.586;13.284;2023-04-06T08:18:46;0.50;;;0.50;;
31081;SDS011;17737;52.586;13.284;2023-04-06T08:21:15;0.50;;;0.50;;
31081;SDS011;17737;52.586;13.284;2023-04-06T08:23:43;0.40;;;0.40;;
31081;SDS011;17737;52.586;13.284;2023-04-06T08:26:12;0.50;;;0.50;;
31081;SDS011;17737;52.586;13.284;2023-04-06T08:28:40;0.60;;;0.60;;
31081;SDS011;17737;52.586;13.284;2023-04-06T08:31:12;0.60;;;0.60;;
31081;SDS011;17737;52.586;13.284;2023-04-06T08:33:43;0.43;;;0.43;;
31081;SDS011;17737;52.586;13.284;2023-04-06T08:36:12;0.63;;;0.50;;
31081;SDS011;17737;52.586;13.284;2023-04-06T08:38:43;0.43;;;0.43;;
31081;SDS011;17737;52.586;13.284;2023-04-06T08:41:12;0.52;;;0.52;;
31081;SDS011;17737;52.586;13.284;2023-04-06T08:43:44;0.50;;;0.50;;
31081;SDS011;17737;52.586;13.284;2023-04-06T08:46:20;0.60;;;0.60;;
31081;SDS011;17737;52.586;13.284;2023-04-06T08:48:58;0.60;;;0.60;;
31081;SDS011;17737;52.586;13.284;2023-04-06T08:51:36;0.50;;;0.50;;
31081;SDS011;17737;52.586;13.284;2023-04-06T08:54:05;0.38;;;0.38;;
31081;SDS011;17737;52.586;13.284;2023-04-06T08:56:37;0.30;;;0.30;;
31081;SDS011;17737;52.586;13.284;2023-04-06T08:59:06;0.30;;;0.30;;
31081;SDS011;17737;52.586;13.284;2023-04-06T09:01:38;0.40;;;0.40;;
31081;SDS011;17737;52.586;13.284;2023-04-06T09:04:10;0.40;;;0.40;;
31081;SDS011;17737;52.586;13.284;2023-04-06T09:06:39;0.50;;;0.50;;
31081;SDS011;17737;52.586;13.284;2023-04-06T09:09:07;0.38;;;0.38;;
31081;SDS011;17737;52.586;13.284;2023-04-06T09:11:43;0.50;;;0.50;;
31081;SDS011;17737;52.586;13.284;2023-04-06T09:14:13;0.40;;;0.40;;
31081;SDS011;17737;52.586;13.284;2023-04-06T09:16:43;0.75;;;0.60;;
31081;SDS011;17737;52.586;13.284;2023-04-06T09:19:15;0.40;;;0.40;;
31081;SDS011;17737;52.586;13.284;2023-04-06T09:21:43;0.28;;;0.28;;
31081;SDS011;17737;52.586;13.284;2023-04-06T09:24:11;0.40;;;0.40;;
31081;SDS011;17737;52.586;13.284;2023-04-06T09:26:45;0.40;;;0.40;;
31081;SDS011;17737;52.586;13.284;2023-04-06T09:29:24;0.40;;;0.40;;
31081;SDS011;17737;52.586;13.284;2023-04-06T09:32:01;0.35;;;0.35;;
31081;SDS011;17737;52.586;13.284;2023-04-06T09:34:32;0.30;;;0.30;;
31081;SDS011;17737;52.586;13.284;2023-04-06T09:37:11;0.40;;;0.40;;
31081;SDS011;17737;52.586;13.284;2023-04-06T09:39:40;0.40;;;0.40;;
31081;SDS011;17737;52.586;13.284;2023-04-06T09:42:09;0.40;;;0.40;;
31081;SDS011;17737;52.586;13.284;2023-04-06T09:44:37;0.40;;;0.40;;
31081;SDS011;17737;52.586;13.284;2023-04-06T09:47:06;0.40;;;0.40;;
31081;SDS011;17737;52.586;13.284;2023-04-06T09:49:36;0.40;;;0.40;;
31081;SDS011;17737;52.586;13.284;2023-04-06T09:52:06;0.50;;;0.50;;
31081;SDS011;17737;52.586;13.284;2023-04-06T09:54:38;0.40;;;0.40;;
31081;SDS011;17737;52.586;13.284;2023-04-06T09:57:11;0.30;;;0.30;;
31081;SDS011;17737;52.586;13.284;2023-04-06T09:59:55;0.47;;;0.47;;
31081;SDS011;17737;52.586;13.284;2023-04-06T10:02:39;0.45;;;0.45;;
31081;SDS011;17737;52.586;13.284;2023-04-06T10:05:22;0.40;;;0.40;;
31081;SDS011;17737;52.586;13.284;2023-04-06T10:08:02;0.30;;;0.30;;
31081;SDS011;17737;52.586;13.284;2023-04-06T10:10:36;0.30;;;0.30;;
31081;SDS011;17737;52.586;13.284;2023-04-06T10:13:05;0.40;;;0.40;;
31081;SDS011;17737;52.586;13.284;2023-04-06T10:15:37;0.30;;;0.30;;
31081;SDS011;17737;52.586;13.284;2023-04-06T10:18:06;0.30;;;0.30;;
31081;SDS011;17737;52.586;13.284;2023-04-06T10:20:38;0.30;;;0.30;;
31081;SDS011;17737;52.586;13.284;2023-04-06T10:23:15;0.40;;;0.40;;
31081;SDS011;17737;52.586;13.284;2023-04-06T10:25:54;0.50;;;0.50;;
31081;SDS011;17737;52.586;13.284;2023-04-06T10:28:24;0.40;;;0.40;;
31081;SDS011;17737;52.586;13.284;2023-04-06T10:30:59;0.35;;;0.35;;
31081;SDS011;17737;52.586;13.284;2023-04-06T10:33:29;0.40;;;0.40;;
31081;SDS011;17737;52.586;13.284;2023-04-06T10:36:08;0.40;;;0.40;;
31081;SDS011;17737;52.586;13.284;2023-04-06T10:38:38;0.35;;;0.35;;
31081;SDS011;17737;52.586;13.284;2023-04-06T10:41:08;0.50;;;0.50;;
31081;SDS011;17737;52.586;13.284;2023-04-06T10:43:39;0.30;;;0.30;;
31081;SDS011;17737;52.586;13.284;2023-04-06T10:48:38;0.40;;;0.40;;
31081;SDS011;17737;52.586;13.284;2023-04-06T10:51:09;0.30;;;0.30;;
31081;SDS011;17737;52.586;13.284;2023-04-06T10:53:40;0.40;;;0.40;;
31081;SDS011;17737;52.586;13.284;2023-04-06T10:56:10;0.30;;;0.30;;
31081;SDS011;17737;52.586;13.284;2023-04-06T10:58:43;0.30;;;0.30;;
31081;SDS011;17737;52.586;13.284;2023-04-06T11:01:14;0.52;;;0.52;;
31081;SDS011;17737;52.586;13.284;2023-04-06T11:03:43;0.30;;;0.30;;
31081;SDS011;17737;52.586;13.284;2023-04-06T11:06:18;0.30;;;0.30;;
31081;SDS011;17737;52.586;13.284;2023-04-06T11:08:47;0.40;;;0.40;;
31081;SDS011;17737;52.586;13.284;2023-04-06T11:11:16;0.40;;;0.40;;
31081;SDS011;17737;52.586;13.284;2023-04-06T11:13:48;0.40;;;0.40;;
31081;SDS011;17737;52.586;13.284;2023-04-06T11:16:19;0.40;;;0.40;;
31081;SDS011;17737;52.586;13.284;2023-04-06T11:18:50;0.47;;;0.47;;
31081;SDS011;17737;52.586;13.284;2023-04-06T11:21:31;0.38;;;0.38;;
31081;SDS011;17737;52.586;13.284;2023-04-06T11:24:03;0.40;;;0.40;;
31081;SDS011;17737;52.586;13.284;2023-04-06T11:26:37;0.38;;;0.38;;
31081;SDS011;17737;52.586;13.284;2023-04-06T11:29:07;0.40;;;0.40;;
31081;SDS011;17737;52.586;13.284;2023-04-06T11:31:39;0.30;;;0.30;;
31081;SDS011;17737;52.586;13.284;2023-04-06T11:34:12;0.40;;;0.40;;
31081;SDS011;17737;52.586;13.284;2023-04-06T11:36:46;0.40;;;0.40;;
31081;SDS011;17737;52.586;13.284;2023-04-06T11:39:18;0.40;;;0.40;;
31081;SDS011;17737;52.586;13.284;2023-04-06T11:41:49;0.30;;;0.30;;
31081;SDS011;17737;52.586;13.284;2023-04-06T11:44:28;0.30;;;0.30;;
31081;SDS011;17737;52.586;13.284;2023-04-06T11:47:00;0.30;;;0.30;;
31081;SDS011;17737;52.586;13.284;2023-04-06T11:49:28;0.40;;;0.40;;
31081;SDS011;17737;52.586;13.284;2023-04-06T11:52:00;0.30;;;0.30;;
31081;SDS011;17737;52.586;13.284;2023-04-06T11:54:31;0.40;;;0.40;;
31081;SDS011;17737;52.586;13.284;2023-04-06T11:57:01;0.35;;;0.35;;
31081;SDS011;17737;52.586;13.284;2023-04-06T11:59:31;0.47;;;0.47;;
31081;SDS011;17737;52.586;13.284;2023-04-06T12:04:29;0.40;;;0.40;;
31081;SDS011;17737;52.586;13.284;2023-04-06T12:06:59;0.40;;;0.40;;
31081;SDS011;17737;52.586;13.284;2023-04-06T12:11:56;0.28;;;0.28;;
31081;SDS011;17737;52.586;13.284;2023-04-06T12:14:25;0.30;;;0.30;;
31081;SDS011;17737;52.586;13.284;2023-04-06T12:16:53;0.30;;;0.30;;
31081;SDS011;17737;52.586;13.284;2023-04-06T12:19:21;0.40;;;0.40;;
31081;SDS011;17737;52.586;13.284;2023-04-06T12:21:51;0.30;;;0.30;;
31081;SDS011;17737;52.586;13.284;2023-04-06T12:24:22;0.40;;;0.40;;
31081;SDS011;17737;52.586;13.284;2023-04-06T12:26:51;0.30;;;0.30;;
31081;SDS011;17737;52.586;13.284;2023-04-06T12:29:35;0.52;;;0.52;;
31081;SDS011;17737;52.586;13.284;2023-04-06T12:32:03;0.30;;;0.30;;
31081;SDS011;17737;52.586;13.284;2023-04-06T12:34:32;0.30;;;0.30;;
31081;SDS011;17737;52.586;13.284;2023-04-06T12:37:00;0.40;;;0.40;;
31081;SDS011;17737;52.586;13.284;2023-04-06T12:39:30;0.30;;;0.30;;
31081;SDS011;17737;52.586;13.284;2023-04-06T12:41:58;0.30;;;0.30;;
31081;SDS011;17737;52.586;13.284;2023-04-06T12:44:27;0.38;;;0.38;;
31081;SDS011;17737;52.586;13.284;2023-04-06T12:46:56;0.30;;;0.30;;
31081;SDS011;17737;52.586;13.284;2023-04-06T12:49:24;0.45;;;0.45;;
31081;SDS011;17737;52.586;13.284;2023-04-06T12:51:55;0.30;;;0.30;;
31081;SDS011;17737;52.586;13.284;2023-04-06T12:54:23;0.35;;;0.35;;
31081;SDS011;17737;52.586;13.284;2023-04-06T13:01:51;0.30;;;0.30;;
31081;SDS011;17737;52.586;13.284;2023-04-06T13:04:19;0.30;;;0.30;;
31081;SDS011;17737;52.586;13.284;2023-04-06T13:06:47;0.30;;;0.30;;
31081;SDS011;17737;52.586;13.284;2023-04-06T13:09:16;0.30;;;0.30;;
31081;SDS011;17737;52.586;13.284;2023-04-06T13:11:44;0.30;;;0.30;;
31081;SDS011;17737;52.586;13.284;2023-04-06T13:14:13;0.30;;;0.30;;
31081;SDS011;17737;52.586;13.284;2023-04-06T13:16:41;0.30;;;0.30;;
31081;SDS011;17737;52.586;13.284;2023-04-06T13:19:10;0.30;;;0.30;;
31081;SDS011;17737;52.586;13.284;2023-04-06T13:21:38;0.30;;;0.30;;
31081;SDS011;17737;52.586;13.284;2023-04-06T13:24:06;0.30;;;0.30;;
31081;SDS011;17737;52.586;13.284;2023-04-06T13:26:35;0.40;;;0.40;;
31081;SDS011;17737;52.586;13.284;2023-04-06T13:29:03;0.30;;;0.30;;
31081;SDS011;17737;52.586;13.284;2023-04-06T13:31:33;0.40;;;0.40;;
31081;SDS011;17737;52.586;13.284;2023-04-06T13:34:01;0.45;;;0.45;;
31081;SDS011;17737;52.586;13.284;2023-04-06T13:36:29;0.40;;;0.40;;
31081;SDS011;17737;52.586;13.284;2023-04-06T13:38:57;0.30;;;0.30;;
31081;SDS011;17737;52.586;13.284;2023-04-06T13:41:26;0.40;;;0.40;;
31081;SDS011;17737;52.586;13.284;2023-04-06T13:43:54;0.30;;;0.30;;
31081;SDS011;17737;52.586;13.284;2023-04-06T13:46:24;0.30;;;0.30;;
31081;SDS011;17737;52.586;13.284;2023-04-06T13:48:53;0.30;;;0.30;;
31081;SDS011;17737;52.586;13.284;2023-04-06T13:51:21;0.40;;;0.40;;
31081;SDS011;17737;52.586;13.284;2023-04-06T13:53:49;0.40;;;0.40;;
31081;SDS011;17737;52.586;13.284;2023-04-06T13:56:18;0.40;;;0.40;;
31081;SDS011;17737;52.586;13.284;2023-04-06T13:58:47;0.30;;;0.30;;
31081;SDS011;17737;52.586;13.284;2023-04-06T14:01:15;0.32;;;0.32;;
31081;SDS011;17737;52.586;13.284;2023-04-06T14:03:44;0.38;;;0.38;;
31081;SDS011;17737;52.586;13.284;2023-04-06T14:06:15;0.30;;;0.30;;
31081;SDS011;17737;52.586;13.284;2023-04-06T14:08:56;0.40;;;0.40;;
31081;SDS011;17737;52.586;13.284;2023-04-06T14:11:24;0.30;;;0.30;;
31081;SDS011;17737;52.586;13.284;2023-04-06T14:13:52;0.30;;;0.30;;
31081;SDS011;17737;52.586;13.284;2023-04-06T14:16:23;0.30;;;0.30;;
31081;SDS011;17737;52.586;13.284;2023-04-06T14:18:52;0.40;;;0.40;;
31081;SDS011;17737;52.586;13.284;2023-04-06T14:21:25;0.30;;;0.30;;
31081;SDS011;17737;52.586;13.284;2023-04-06T14:23:53;0.40;;;0.40;;
31081;SDS011;17737;52.586;13.284;2023-04-06T14:26:25;0.40;;;0.40;;
31081;SDS011;17737;52.586;13.284;2023-04-06T14:28:53;0.30;;;0.30;;
31081;SDS011;17737;52.586;13.284;2023-04-06T14:31:21;0.40;;;0.40;;
31081;SDS011;17737;52.586;13.284;2023-04-06T14:33:49;0.50;;;0.50;;
31081;SDS011;17737;52.586;13.284;2023-04-06T14:36:18;0.35;;;0.35;;
31081;SDS011;17737;52.586;13.284;2023-04-06T14:38:47;0.40;;;0.40;;
31081;SDS011;17737;52.586;13.284;2023-04-06T14:41:16;0.40;;;0.40;;
31081;SDS011;17737;52.586;13.284;2023-04-06T14:46:14;0.60;;;0.60;;
31081;SDS011;17737;52.586;13.284;2023-04-06T14:48:43;0.40;;;0.40;;
31081;SDS011;17737;52.586;13.284;2023-04-06T14:51:11;0.50;;;0.50;;
31081;SDS011;17737;52.586;13.284;2023-04-06T14:53:39;0.40;;;0.40;;
31081;SDS011;17737;52.586;13.284;2023-04-06T14:56:08;0.40;;;0.40;;
31081;SDS011;17737;52.586;13.284;2023-04-06T14:58:36;0.50;;;0.50;;
31081;SDS011;17737;52.586;13.284;2023-04-06T15:01:04;0.40;;;0.40;;
31081;SDS011;17737;52.586;13.284;2023-04-06T15:03:32;0.30;;;0.30;;
31081;SDS011;17737;52.586;13.284;2023-04-06T15:06:01;0.30;;;0.30;;
31081;SDS011;17737;52.586;13.284;2023-04-06T15:08:29;0.30;;;0.30;;
31081;SDS011;17737;52.586;13.284;2023-04-06T15:10:58;0.40;;;0.40;;
31081;SDS011;17737;52.586;13.284;2023-04-06T15:13:28;0.30;;;0.30;;
31081;SDS011;17737;52.586;13.284;2023-04-06T15:15:56;0.40;;;0.40;;